sensor_id;sensor_type;location;lat;lon;timestamp;pressure;altitude;pressure_sealevel;temperature;humidity
47166;BME280;32930;51.112;13.762;2022-07-12T00:01:18;99952.53;;;16.33;63.71
47166;BME280;32930;51.112;13.762;2022-07-12T00:03:44;99954.25;;;16.34;63.96
47166;BME280;32930;51.112;13.762;2022-07-12T00:06:09;99954.41;;;16.20;64.19
47166;BME280;32930;51.112;13.762;2022-07-12T00:08:35;99949.13;;;16.28;63.95
47166;BME280;32930;51.112;13.762;2022-07-12T00:11:00;99957.72;;;16.32;63.78
47166;BME280;32930;51.112;13.762;2022-07-12T00:13:26;99960.41;;;16.24;64.46
47166;BME280;32930;51.112;13.762;2022-07-12T00:15:51;99959.50;;;16.28;64.19
47166;BME280;32930;51.112;13.762;2022-07-12T00:18:39;99963.16;;;16.09;64.88
47166;BME280;32930;51.112;13.762;2022-07-12T00:21:04;99956.91;;;16.28;64.67
47166;BME280;32930;51.112;13.762;2022-07-12T00:23:30;99963.88;;;16.20;64.08
47166;BME280;32930;51.112;13.762;2022-07-12T00:25:56;99962.28;;;16.11;64.16
47166;BME280;32930;51.112;13.762;2022-07-12T01:22:26;99989.28;;;15.84;65.69
47166;BME280;32930;51.112;13.762;2022-07-12T01:24:53;99988.34;;;15.91;66.00
47166;BME280;32930;51.112;13.762;2022-07-12T01:27:18;99995.28;;;15.88;66.37
47166;BME280;32930;51.112;13.762;2022-07-12T01:29:44;99992.56;;;16.02;66.60
47166;BME280;32930;51.112;13.762;2022-07-12T01:32:10;99992.59;;;15.98;67.28
47166;BME280;32930;51.112;13.762;2022-07-12T01:35:04;99986.56;;;15.95;67.33
47166;BME280;32930;51.112;13.762;2022-07-12T01:37:34;99996.16;;;15.87;68.11
47166;BME280;32930;51.112;13.762;2022-07-12T01:40:02;99994.38;;;15.93;68.07
47166;BME280;32930;51.112;13.762;2022-07-12T01:42:29;99986.53;;;15.99;68.09
47166;BME280;32930;51.112;13.762;2022-07-12T01:44:56;99989.97;;;16.03;68.46
47166;BME280;32930;51.112;13.762;2022-07-12T01:47:27;99998.44;;;16.16;67.87
47166;BME280;32930;51.112;13.762;2022-07-12T01:49:53;100002.81;;;16.11;68.35
47166;BME280;32930;51.112;13.762;2022-07-12T01:52:19;100001.06;;;16.14;68.50
47166;BME280;32930;51.112;13.762;2022-07-12T01:54:46;100006.31;;;16.07;68.77
47166;BME280;32930;51.112;13.762;2022-07-12T01:57:13;100006.25;;;16.14;68.78
47166;BME280;32930;51.112;13.762;2022-07-12T01:59:40;100008.84;;;16.14;69.40
47166;BME280;32930;51.112;13.762;2022-07-12T02:02:06;100007.94;;;16.14;69.40
47166;BME280;32930;51.112;13.762;2022-07-12T02:04:33;100010.59;;;16.09;70.80
47166;BME280;32930;51.112;13.762;2022-07-12T02:06:58;100010.59;;;16.08;71.60
47166;BME280;32930;51.112;13.762;2022-07-12T02:09:25;100011.31;;;16.25;70.30
47166;BME280;32930;51.112;13.762;2022-07-12T02:11:50;100021.78;;;16.13;71.42
47166;BME280;32930;51.112;13.762;2022-07-12T02:14:17;100025.13;;;16.24;71.00
47166;BME280;32930;51.112;13.762;2022-07-12T02:16:42;100020.75;;;16.29;70.48
47166;BME280;32930;51.112;13.762;2022-07-12T02:19:10;100019.09;;;16.22;71.81
47166;BME280;32930;51.112;13.762;2022-07-12T02:21:36;100013.06;;;16.20;72.10
47166;BME280;32930;51.112;13.762;2022-07-12T02:24:02;100023.34;;;16.31;71.74
47166;BME280;32930;51.112;13.762;2022-07-12T02:26:28;100018.25;;;16.20;72.42
47166;BME280;32930;51.112;13.762;2022-07-12T02:28:53;100024.38;;;16.14;72.84
47166;BME280;32930;51.112;13.762;2022-07-12T02:31:19;100023.44;;;16.18;72.69
47166;BME280;32930;51.112;13.762;2022-07-12T02:33:44;100028.69;;;16.12;72.59
47166;BME280;32930;51.112;13.762;2022-07-12T02:36:11;100032.16;;;16.10;73.56
47166;BME280;32930;51.112;13.762;2022-07-12T02:38:37;100022.66;;;16.12;73.30
47166;BME280;32930;51.112;13.762;2022-07-12T02:41:03;100024.31;;;16.19;73.11
47166;BME280;32930;51.112;13.762;2022-07-12T02:43:30;100026.03;;;16.18;73.37
47166;BME280;32930;51.112;13.762;2022-07-12T02:46:07;100026.09;;;16.12;73.85
47166;BME280;32930;51.112;13.762;2022-07-12T02:48:33;100019.94;;;16.24;73.49
47166;BME280;32930;51.112;13.762;2022-07-12T02:51:00;100025.19;;;16.18;73.54
47166;BME280;32930;51.112;13.762;2022-07-12T02:53:26;100022.78;;;15.99;74.69
47166;BME280;32930;51.112;13.762;2022-07-12T02:55:52;100024.41;;;16.08;74.40
47166;BME280;32930;51.112;13.762;2022-07-12T02:58:18;100022.63;;;16.15;73.98
47166;BME280;32930;51.112;13.762;2022-07-12T03:00:43;100019.16;;;16.17;73.67
47166;BME280;32930;51.112;13.762;2022-07-12T03:03:13;100022.72;;;16.06;74.03
47166;BME280;32930;51.112;13.762;2022-07-12T03:05:40;100023.53;;;16.08;73.65
47166;BME280;32930;51.112;13.762;2022-07-12T03:08:07;100021.00;;;16.03;73.83
47166;BME280;32930;51.112;13.762;2022-07-12T03:10:33;100021.06;;;15.98;74.08
47166;BME280;32930;51.112;13.762;2022-07-12T03:12:59;100021.88;;;16.04;73.74
47166;BME280;32930;51.112;13.762;2022-07-12T03:15:25;100025.47;;;15.87;74.94
47166;BME280;32930;51.112;13.762;2022-07-12T03:17:51;100025.41;;;15.93;74.52
47166;BME280;32930;51.112;13.762;2022-07-12T03:20:16;100024.56;;;15.91;74.43
47166;BME280;32930;51.112;13.762;2022-07-12T03:22:43;100022.09;;;15.81;75.35
47166;BME280;32930;51.112;13.762;2022-07-12T03:25:10;100024.66;;;15.79;75.39
47166;BME280;32930;51.112;13.762;2022-07-12T03:27:35;100022.03;;;15.85;75.30
47166;BME280;32930;51.112;13.762;2022-07-12T03:30:02;100017.69;;;15.89;75.18
47166;BME280;32930;51.112;13.762;2022-07-12T03:32:28;100024.63;;;15.84;75.49
47166;BME280;32930;51.112;13.762;2022-07-12T03:34:53;100021.25;;;15.75;75.25
47166;BME280;32930;51.112;13.762;2022-07-12T03:37:19;100029.81;;;15.84;75.18
47166;BME280;32930;51.112;13.762;2022-07-12T03:39:44;100026.44;;;15.77;75.11
47166;BME280;32930;51.112;13.762;2022-07-12T03:42:10;100026.41;;;15.75;75.37
47166;BME280;32930;51.112;13.762;2022-07-12T03:44:38;100029.00;;;15.77;75.75
47166;BME280;32930;51.112;13.762;2022-07-12T03:47:04;100030.78;;;15.70;75.84
47166;BME280;32930;51.112;13.762;2022-07-12T03:49:30;100039.34;;;15.80;75.47
47166;BME280;32930;51.112;13.762;2022-07-12T03:51:56;100040.28;;;15.62;76.10
47166;BME280;32930;51.112;13.762;2022-07-12T03:54:22;100035.13;;;15.62;76.58
47166;BME280;32930;51.112;13.762;2022-07-12T03:56:47;100035.16;;;15.58;77.55
47166;BME280;32930;51.112;13.762;2022-07-12T03:59:32;100047.22;;;15.59;76.72
47166;BME280;32930;51.112;13.762;2022-07-12T04:01:57;100039.44;;;15.68;76.50
47166;BME280;32930;51.112;13.762;2022-07-12T04:04:23;100047.19;;;15.62;76.92
47166;BME280;32930;51.112;13.762;2022-07-12T04:06:49;100040.28;;;15.62;76.50
47166;BME280;32930;51.112;13.762;2022-07-12T04:09:15;100048.91;;;15.63;77.23
47166;BME280;32930;51.112;13.762;2022-07-12T04:11:40;100054.94;;;15.60;77.89
47166;BME280;32930;51.112;13.762;2022-07-12T04:14:07;100054.06;;;15.70;77.37
47166;BME280;32930;51.112;13.762;2022-07-12T04:23:16;100060.03;;;15.80;78.57
47166;BME280;32930;51.112;13.762;2022-07-12T04:25:42;100058.31;;;15.76;79.15
47166;BME280;32930;51.112;13.762;2022-07-12T06:09:06;100079.53;;;24.73;57.58
47166;BME280;32930;51.112;13.762;2022-07-12T06:11:32;100088.47;;;24.69;56.42
47166;BME280;32930;51.112;13.762;2022-07-12T06:13:59;100078.91;;;24.87;55.24
47166;BME280;32930;51.112;13.762;2022-07-12T06:16:25;100085.56;;;25.14;55.75
47166;BME280;32930;51.112;13.762;2022-07-12T06:18:51;100091.50;;;25.37;55.84
47166;BME280;32930;51.112;13.762;2022-07-12T06:21:17;100089.25;;;25.65;54.44
47166;BME280;32930;51.112;13.762;2022-07-12T06:23:42;100096.72;;;25.56;54.33
47166;BME280;32930;51.112;13.762;2022-07-12T06:26:08;100097.06;;;25.67;53.64
47166;BME280;32930;51.112;13.762;2022-07-12T06:28:33;100095.34;;;25.66;53.35
47166;BME280;32930;51.112;13.762;2022-07-12T06:31:01;100097.72;;;25.53;53.98
47166;BME280;32930;51.112;13.762;2022-07-12T06:33:26;100093.31;;;25.73;54.36
47166;BME280;32930;51.112;13.762;2022-07-12T06:35:51;100106.94;;;25.26;54.32
47166;BME280;32930;51.112;13.762;2022-07-12T06:38:17;100103.72;;;24.80;54.52
47166;BME280;32930;51.112;13.762;2022-07-12T06:40:43;100107.22;;;25.19;53.75
47166;BME280;32930;51.112;13.762;2022-07-12T06:43:10;100108.75;;;25.24;55.16
47166;BME280;32930;51.112;13.762;2022-07-12T06:45:36;100111.38;;;25.24;55.10
47166;BME280;32930;51.112;13.762;2022-07-12T06:48:02;100104.84;;;25.32;54.23
47166;BME280;32930;51.112;13.762;2022-07-12T06:50:28;100104.44;;;25.41;54.42
47166;BME280;32930;51.112;13.762;2022-07-12T06:52:53;100105.94;;;25.64;53.10
47166;BME280;32930;51.112;13.762;2022-07-12T06:55:19;100104.41;;;25.97;52.29
47166;BME280;32930;51.112;13.762;2022-07-12T06:57:44;100107.19;;;26.28;51.18
47166;BME280;32930;51.112;13.762;2022-07-12T07:00:10;100104.28;;;26.52;51.19
47166;BME280;32930;51.112;13.762;2022-07-12T07:02:38;100106.06;;;26.85;49.94
47166;BME280;32930;51.112;13.762;2022-07-12T07:05:05;100106.28;;;25.95;50.78
47166;BME280;32930;51.112;13.762;2022-07-12T07:07:30;100107.28;;;26.27;51.62
47166;BME280;32930;51.112;13.762;2022-07-12T07:09:56;100106.41;;;26.44;50.32
47166;BME280;32930;51.112;13.762;2022-07-12T07:12:21;100110.50;;;26.67;49.76
47166;BME280;32930;51.112;13.762;2022-07-12T07:14:47;100109.97;;;26.77;49.78
47166;BME280;32930;51.112;13.762;2022-07-12T07:17:15;100116.38;;;26.72;49.95
47166;BME280;32930;51.112;13.762;2022-07-12T07:19:42;100111.72;;;27.10;49.26
47166;BME280;32930;51.112;13.762;2022-07-12T07:22:09;100109.81;;;26.96;49.23
47166;BME280;32930;51.112;13.762;2022-07-12T07:24:35;100106.94;;;27.01;48.29
47166;BME280;32930;51.112;13.762;2022-07-12T07:27:00;100113.59;;;27.08;48.94
47166;BME280;32930;51.112;13.762;2022-07-12T07:29:26;100107.44;;;27.08;47.46
47166;BME280;32930;51.112;13.762;2022-07-12T07:32:10;100106.47;;;27.26;48.32
47166;BME280;32930;51.112;13.762;2022-07-12T07:34:36;100103.44;;;27.34;47.55
47166;BME280;32930;51.112;13.762;2022-07-12T07:37:01;100109.28;;;27.39;47.98
47166;BME280;32930;51.112;13.762;2022-07-12T07:39:27;100112.28;;;26.66;48.46
47166;BME280;32930;51.112;13.762;2022-07-12T07:41:52;100108.91;;;26.29;49.29
47166;BME280;32930;51.112;13.762;2022-07-12T07:44:18;100109.34;;;26.72;49.11
47166;BME280;32930;51.112;13.762;2022-07-12T07:50:06;100106.59;;;26.23;51.32
47166;BME280;32930;51.112;13.762;2022-07-12T07:52:31;100106.78;;;25.84;50.14
47166;BME280;32930;51.112;13.762;2022-07-12T07:54:57;100104.72;;;25.35;50.86
47166;BME280;32930;51.112;13.762;2022-07-12T07:57:22;100115.09;;;25.19;52.56
47166;BME280;32930;51.112;13.762;2022-07-12T07:59:48;100116.59;;;25.05;54.00
47166;BME280;32930;51.112;13.762;2022-07-12T08:02:13;100108.22;;;24.96;50.15
47166;BME280;32930;51.112;13.762;2022-07-12T08:04:39;100106.66;;;24.53;52.10
47166;BME280;32930;51.112;13.762;2022-07-12T08:07:05;100104.53;;;24.41;50.88
47166;BME280;32930;51.112;13.762;2022-07-12T08:09:30;100109.88;;;24.17;53.55
47166;BME280;32930;51.112;13.762;2022-07-12T08:11:56;100102.34;;;24.10;52.33
47166;BME280;32930;51.112;13.762;2022-07-12T08:14:21;100098.69;;;24.14;52.19
47166;BME280;32930;51.112;13.762;2022-07-12T08:16:47;100101.16;;;24.17;52.86
47166;BME280;32930;51.112;13.762;2022-07-12T08:19:12;100105.25;;;23.81;53.35
47166;BME280;32930;51.112;13.762;2022-07-12T08:21:38;100103.91;;;23.71;53.33
47166;BME280;32930;51.112;13.762;2022-07-12T08:24:03;100104.75;;;23.26;52.98
47166;BME280;32930;51.112;13.762;2022-07-12T08:26:29;100104.97;;;23.44;54.04
47166;BME280;32930;51.112;13.762;2022-07-12T08:28:54;100109.28;;;23.45;54.26
47166;BME280;32930;51.112;13.762;2022-07-12T08:31:21;100105.31;;;23.34;53.33
47166;BME280;32930;51.112;13.762;2022-07-12T08:33:46;100095.91;;;23.52;53.40
47166;BME280;32930;51.112;13.762;2022-07-12T08:36:12;100096.06;;;23.71;54.11
47166;BME280;32930;51.112;13.762;2022-07-12T08:38:38;100097.19;;;23.86;52.83
47166;BME280;32930;51.112;13.762;2022-07-12T08:41:06;100091.44;;;23.98;53.16
47166;BME280;32930;51.112;13.762;2022-07-12T08:43:36;100092.72;;;24.10;52.86
47166;BME280;32930;51.112;13.762;2022-07-12T08:46:06;100089.06;;;24.35;48.90
47166;BME280;32930;51.112;13.762;2022-07-12T08:48:36;100077.44;;;24.61;48.44
47166;BME280;32930;51.112;13.762;2022-07-12T08:51:06;100092.66;;;24.52;49.56
47166;BME280;32930;51.112;13.762;2022-07-12T08:53:33;100086.16;;;24.41;47.05
47166;BME280;32930;51.112;13.762;2022-07-12T08:55:59;100086.56;;;24.52;45.64
47166;BME280;32930;51.112;13.762;2022-07-12T08:58:25;100079.44;;;24.74;45.76
47166;BME280;32930;51.112;13.762;2022-07-12T09:00:50;100085.31;;;24.81;45.54
47166;BME280;32930;51.112;13.762;2022-07-12T09:03:26;100088.34;;;24.91;45.88
47166;BME280;32930;51.112;13.762;2022-07-12T09:05:56;100090.44;;;25.03;43.68
47166;BME280;32930;51.112;13.762;2022-07-12T09:08:31;100095.78;;;25.20;45.81
47166;BME280;32930;51.112;13.762;2022-07-12T09:11:02;100098.00;;;24.51;45.31
47166;BME280;32930;51.112;13.762;2022-07-12T09:13:54;100088.78;;;24.41;44.38
47166;BME280;32930;51.112;13.762;2022-07-12T09:16:25;100092.03;;;24.87;44.12
47166;BME280;32930;51.112;13.762;2022-07-12T09:19:15;100087.16;;;24.98;42.29
47166;BME280;32930;51.112;13.762;2022-07-12T09:21:53;100082.06;;;25.14;41.97
47166;BME280;32930;51.112;13.762;2022-07-12T09:24:23;100086.06;;;25.23;44.99
47166;BME280;32930;51.112;13.762;2022-07-12T09:26:53;100082.34;;;25.63;44.78
47166;BME280;32930;51.112;13.762;2022-07-12T09:29:21;100085.09;;;25.42;42.96
47166;BME280;32930;51.112;13.762;2022-07-12T09:31:52;100092.25;;;24.82;43.71
47166;BME280;32930;51.112;13.762;2022-07-12T09:34:37;100086.22;;;24.39;43.63
47166;BME280;32930;51.112;13.762;2022-07-12T09:37:21;100087.28;;;24.76;45.10
47166;BME280;32930;51.112;13.762;2022-07-12T09:39:52;100092.44;;;25.36;41.05
47166;BME280;32930;51.112;13.762;2022-07-12T09:42:18;100077.13;;;25.44;41.62
47166;BME280;32930;51.112;13.762;2022-07-12T09:44:43;100073.75;;;25.42;40.96
47166;BME280;32930;51.112;13.762;2022-07-12T09:47:13;100079.22;;;25.74;41.53
47166;BME280;32930;51.112;13.762;2022-07-12T09:49:42;100075.06;;;25.70;38.58
47166;BME280;32930;51.112;13.762;2022-07-12T09:52:26;100057.91;;;25.80;38.89
47166;BME280;32930;51.112;13.762;2022-07-12T09:54:55;100062.28;;;25.98;40.67
47166;BME280;32930;51.112;13.762;2022-07-12T09:57:31;100063.19;;;25.97;39.90
47166;BME280;32930;51.112;13.762;2022-07-12T09:59:58;100078.75;;;25.29;41.83
47166;BME280;32930;51.112;13.762;2022-07-12T10:02:24;100070.91;;;25.28;39.43
47166;BME280;32930;51.112;13.762;2022-07-12T10:04:51;100077.22;;;25.05;38.72
47166;BME280;32930;51.112;13.762;2022-07-12T10:07:20;100066.16;;;25.72;41.04
47166;BME280;32930;51.112;13.762;2022-07-12T10:09:50;100064.44;;;25.71;40.33
47166;BME280;32930;51.112;13.762;2022-07-12T10:12:20;100059.34;;;26.04;39.18
47166;BME280;32930;51.112;13.762;2022-07-12T10:14:51;100067.47;;;25.63;39.02
47166;BME280;32930;51.112;13.762;2022-07-12T10:17:22;100078.00;;;25.07;38.55
47166;BME280;32930;51.112;13.762;2022-07-12T10:19:49;100082.38;;;25.06;40.27
47166;BME280;32930;51.112;13.762;2022-07-12T10:22:20;100069.41;;;25.77;36.75
47166;BME280;32930;51.112;13.762;2022-07-12T10:24:47;100068.69;;;26.27;36.11
47166;BME280;32930;51.112;13.762;2022-07-12T10:29:43;100052.31;;;25.32;37.31
47166;BME280;32930;51.112;13.762;2022-07-12T10:32:33;100060.69;;;25.77;38.70
47166;BME280;32930;51.112;13.762;2022-07-12T10:35:00;100052.03;;;26.09;38.79
47166;BME280;32930;51.112;13.762;2022-07-12T10:37:29;100053.63;;;25.77;40.15
47166;BME280;32930;51.112;13.762;2022-07-12T10:40:15;100062.00;;;25.13;40.75
47166;BME280;32930;51.112;13.762;2022-07-12T10:45:42;100059.53;;;26.34;37.23
47166;BME280;32930;51.112;13.762;2022-07-12T10:48:19;100053.25;;;26.37;36.00
47166;BME280;32930;51.112;13.762;2022-07-12T11:01:06;100058.28;;;26.59;37.14
47166;BME280;32930;51.112;13.762;2022-07-12T11:04:10;100048.41;;;27.12;35.28
47166;BME280;32930;51.112;13.762;2022-07-12T11:06:45;100043.22;;;27.10;35.02
47166;BME280;32930;51.112;13.762;2022-07-12T11:09:12;100049.34;;;27.11;36.81
47166;BME280;32930;51.112;13.762;2022-07-12T11:11:48;100045.06;;;26.43;37.67
47166;BME280;32930;51.112;13.762;2022-07-12T11:14:28;100051.34;;;26.23;38.09
47166;BME280;32930;51.112;13.762;2022-07-12T11:16:59;100047.06;;;26.38;36.05
47166;BME280;32930;51.112;13.762;2022-07-12T11:19:29;100046.66;;;25.95;40.12
47166;BME280;32930;51.112;13.762;2022-07-12T11:21:56;100048.41;;;26.96;37.68
47166;BME280;32930;51.112;13.762;2022-07-12T11:24:32;100045.47;;;27.18;36.88
47166;BME280;32930;51.112;13.762;2022-07-12T11:26:58;100041.66;;;27.69;35.77
47166;BME280;32930;51.112;13.762;2022-07-12T11:29:27;100033.41;;;27.14;36.00
47166;BME280;32930;51.112;13.762;2022-07-12T11:32:05;100045.28;;;26.89;36.82
47166;BME280;32930;51.112;13.762;2022-07-12T11:34:34;100041.09;;;26.85;37.95
47166;BME280;32930;51.112;13.762;2022-07-12T11:37:00;100050.78;;;27.00;35.00
47166;BME280;32930;51.112;13.762;2022-07-12T11:42:00;100032.03;;;27.22;34.39
47166;BME280;32930;51.112;13.762;2022-07-12T11:44:48;100029.22;;;27.10;35.90
47166;BME280;32930;51.112;13.762;2022-07-12T11:47:16;100035.28;;;27.27;36.61
47166;BME280;32930;51.112;13.762;2022-07-12T11:49:47;100030.97;;;26.77;34.36
47166;BME280;32930;51.112;13.762;2022-07-12T11:52:16;100050.00;;;26.32;36.74
47166;BME280;32930;51.112;13.762;2022-07-12T11:54:44;100041.75;;;26.22;37.54
47166;BME280;32930;51.112;13.762;2022-07-12T11:57:11;100041.66;;;26.58;36.52
47166;BME280;32930;51.112;13.762;2022-07-12T11:59:37;100039.09;;;26.73;34.76
47166;BME280;32930;51.112;13.762;2022-07-12T12:02:07;100042.75;;;26.37;35.71
47166;BME280;32930;51.112;13.762;2022-07-12T12:04:53;100037.34;;;25.88;37.19
47166;BME280;32930;51.112;13.762;2022-07-12T12:07:21;100044.69;;;25.81;36.25
47166;BME280;32930;51.112;13.762;2022-07-12T12:15:08;100037.13;;;25.93;36.43
47166;BME280;32930;51.112;13.762;2022-07-12T12:17:36;100034.25;;;25.97;36.86
47166;BME280;32930;51.112;13.762;2022-07-12T12:20:37;100025.31;;;26.01;37.19
47166;BME280;32930;51.112;13.762;2022-07-12T12:23:05;100031.75;;;25.77;37.62
47166;BME280;32930;51.112;13.762;2022-07-12T12:25:32;100032.28;;;25.49;37.97
47166;BME280;32930;51.112;13.762;2022-07-12T12:28:03;100031.72;;;25.42;35.37
47166;BME280;32930;51.112;13.762;2022-07-12T12:30:30;100038.63;;;25.62;37.12
47166;BME280;32930;51.112;13.762;2022-07-12T12:33:01;100033.34;;;25.98;36.93
47166;BME280;32930;51.112;13.762;2022-07-12T12:35:32;100037.44;;;26.04;38.07
47166;BME280;32930;51.112;13.762;2022-07-12T12:38:00;100030.44;;;25.68;36.81
47166;BME280;32930;51.112;13.762;2022-07-12T12:40:29;100026.56;;;25.75;35.64
47166;BME280;32930;51.112;13.762;2022-07-12T12:43:13;100033.75;;;25.72;35.74
47166;BME280;32930;51.112;13.762;2022-07-12T12:45:52;100032.06;;;25.71;38.46
47166;BME280;32930;51.112;13.762;2022-07-12T12:48:20;100036.53;;;25.51;37.50
47166;BME280;32930;51.112;13.762;2022-07-12T12:50:48;100029.03;;;25.78;37.88
47166;BME280;32930;51.112;13.762;2022-07-12T12:53:19;100027.50;;;25.74;35.72
47166;BME280;32930;51.112;13.762;2022-07-12T12:55:48;100024.97;;;25.73;36.15
47166;BME280;32930;51.112;13.762;2022-07-12T12:58:15;100020.03;;;25.84;35.05
47166;BME280;32930;51.112;13.762;2022-07-12T13:00:44;100017.84;;;25.75;37.75
47166;BME280;32930;51.112;13.762;2022-07-12T13:03:12;100027.66;;;25.71;36.59
47166;BME280;32930;51.112;13.762;2022-07-12T13:05:39;100017.53;;;25.63;36.00
47166;BME280;32930;51.112;13.762;2022-07-12T13:08:07;100018.41;;;25.81;36.45
47166;BME280;32930;51.112;13.762;2022-07-12T13:10:34;100021.31;;;25.75;36.90
47166;BME280;32930;51.112;13.762;2022-07-12T13:13:02;100012.31;;;25.81;35.23
47166;BME280;32930;51.112;13.762;2022-07-12T13:15:28;100019.31;;;25.80;36.28
47166;BME280;32930;51.112;13.762;2022-07-12T13:17:54;100016.31;;;25.71;36.88
47166;BME280;32930;51.112;13.762;2022-07-12T13:20:20;100015.91;;;25.61;35.65
47166;BME280;32930;51.112;13.762;2022-07-12T13:22:46;100017.75;;;25.59;36.47
47166;BME280;32930;51.112;13.762;2022-07-12T13:25:13;100019.69;;;25.55;37.03
47166;BME280;32930;51.112;13.762;2022-07-12T13:27:40;100008.78;;;25.46;36.53
47166;BME280;32930;51.112;13.762;2022-07-12T13:30:09;100012.41;;;25.43;37.05
47166;BME280;32930;51.112;13.762;2022-07-12T13:32:36;100018.28;;;25.48;34.96
47166;BME280;32930;51.112;13.762;2022-07-12T13:35:02;100015.97;;;25.42;35.47
47166;BME280;32930;51.112;13.762;2022-07-12T13:37:29;100013.63;;;25.53;35.20
47166;BME280;32930;51.112;13.762;2022-07-12T13:39:54;100013.66;;;25.71;35.96
47166;BME280;32930;51.112;13.762;2022-07-12T13:42:40;100011.25;;;25.49;35.61
47166;BME280;32930;51.112;13.762;2022-07-12T13:45:08;100022.94;;;25.24;37.35
47166;BME280;32930;51.112;13.762;2022-07-12T13:47:37;100017.69;;;25.24;35.19
47166;BME280;32930;51.112;13.762;2022-07-12T13:50:03;100012.72;;;25.18;35.19
47166;BME280;32930;51.112;13.762;2022-07-12T13:52:30;100012.13;;;25.13;36.09
47166;BME280;32930;51.112;13.762;2022-07-12T13:54:56;100011.28;;;25.30;36.30
47166;BME280;32930;51.112;13.762;2022-07-12T13:57:21;100005.06;;;25.32;35.94
47166;BME280;32930;51.112;13.762;2022-07-12T13:59:47;99998.56;;;25.39;35.80
47166;BME280;32930;51.112;13.762;2022-07-12T14:02:13;100000.75;;;25.49;37.72
47166;BME280;32930;51.112;13.762;2022-07-12T14:04:38;100006.47;;;25.57;36.33
47166;BME280;32930;51.112;13.762;2022-07-12T14:07:04;99997.81;;;25.55;35.12
47166;BME280;32930;51.112;13.762;2022-07-12T14:09:30;99995.63;;;25.63;35.27
47166;BME280;32930;51.112;13.762;2022-07-12T14:11:55;100005.00;;;25.69;35.27
47166;BME280;32930;51.112;13.762;2022-07-12T14:14:21;99998.03;;;25.50;34.90
47166;BME280;32930;51.112;13.762;2022-07-12T14:17:05;99995.50;;;25.49;36.30
47166;BME280;32930;51.112;13.762;2022-07-12T14:19:32;100000.69;;;25.31;33.83
47166;BME280;32930;51.112;13.762;2022-07-12T14:21:58;100000.03;;;25.45;34.14
47166;BME280;32930;51.112;13.762;2022-07-12T14:24:24;99991.22;;;25.46;34.63
47166;BME280;32930;51.112;13.762;2022-07-12T14:26:50;99990.34;;;25.28;34.81
47166;BME280;32930;51.112;13.762;2022-07-12T14:32:38;99992.56;;;25.18;34.94
47166;BME280;32930;51.112;13.762;2022-07-12T14:35:05;99989.78;;;25.03;34.93
47166;BME280;32930;51.112;13.762;2022-07-12T14:37:32;99993.28;;;25.03;33.88
47166;BME280;32930;51.112;13.762;2022-07-12T14:39:58;99986.75;;;24.93;34.62
47166;BME280;32930;51.112;13.762;2022-07-12T14:42:23;99988.06;;;24.84;34.75
47166;BME280;32930;51.112;13.762;2022-07-12T14:44:49;99992.72;;;24.78;34.78
47166;BME280;32930;51.112;13.762;2022-07-12T14:47:14;99985.63;;;24.80;35.68
47166;BME280;32930;51.112;13.762;2022-07-12T14:49:40;99986.13;;;24.88;34.31
47166;BME280;32930;51.112;13.762;2022-07-12T14:52:06;99986.69;;;24.94;34.55
47166;BME280;32930;51.112;13.762;2022-07-12T14:54:32;99978.72;;;24.96;34.96
47166;BME280;32930;51.112;13.762;2022-07-12T14:56:58;99977.69;;;25.00;33.63
47166;BME280;32930;51.112;13.762;2022-07-12T14:59:23;99981.16;;;24.82;35.80
47166;BME280;32930;51.112;13.762;2022-07-12T15:01:49;99975.97;;;24.80;34.68
47166;BME280;32930;51.112;13.762;2022-07-12T15:04:16;99975.13;;;24.80;36.13
47166;BME280;32930;51.112;13.762;2022-07-12T15:06:41;99969.75;;;24.83;35.41
47166;BME280;32930;51.112;13.762;2022-07-12T15:09:07;99975.84;;;24.83;36.64
47166;BME280;32930;51.112;13.762;2022-07-12T15:11:33;99971.00;;;24.93;34.40
47166;BME280;32930;51.112;13.762;2022-07-12T15:13:59;99973.06;;;24.86;35.37
47166;BME280;32930;51.112;13.762;2022-07-12T15:16:24;99964.56;;;24.81;33.75
47166;BME280;32930;51.112;13.762;2022-07-12T15:18:50;99971.28;;;24.87;35.12
47166;BME280;32930;51.112;13.762;2022-07-12T15:21:15;99957.13;;;24.91;35.34
47166;BME280;32930;51.112;13.762;2022-07-12T15:23:41;99961.16;;;24.98;35.19
47166;BME280;32930;51.112;13.762;2022-07-12T15:26:07;99958.38;;;25.01;36.25
47166;BME280;32930;51.112;13.762;2022-07-12T15:28:32;99959.06;;;25.05;36.04
47166;BME280;32930;51.112;13.762;2022-07-12T15:30:59;99948.22;;;24.93;35.67
47166;BME280;32930;51.112;13.762;2022-07-12T15:33:24;99959.25;;;24.83;40.14
47166;BME280;32930;51.112;13.762;2022-07-12T15:35:51;99953.19;;;24.81;36.95
47166;BME280;32930;51.112;13.762;2022-07-12T15:38:16;99951.78;;;24.92;34.66
47166;BME280;32930;51.112;13.762;2022-07-12T15:40:43;99957.47;;;24.83;35.78
47166;BME280;32930;51.112;13.762;2022-07-12T15:43:09;99952.34;;;24.80;35.82
47166;BME280;32930;51.112;13.762;2022-07-12T15:45:37;99955.78;;;24.82;34.22
47166;BME280;32930;51.112;13.762;2022-07-12T15:48:03;99951.31;;;24.84;35.38
47166;BME280;32930;51.112;13.762;2022-07-12T15:50:29;99945.97;;;24.86;34.54
47166;BME280;32930;51.112;13.762;2022-07-12T15:52:54;99950.66;;;24.79;35.08
47166;BME280;32930;51.112;13.762;2022-07-12T15:55:39;99943.63;;;24.80;35.31
47166;BME280;32930;51.112;13.762;2022-07-12T15:58:05;99949.38;;;24.88;35.23
47166;BME280;32930;51.112;13.762;2022-07-12T16:00:32;99950.94;;;24.92;34.98